Time;durP1;ratioP1;P1;durP2;ratioP2;P2;SDS_P1;SDS_P2;PMS_P1;PMS_P2;Temp;Humidity;BMP_temperature;BMP_pressure;BME280_temperature;BME280_humidity;BME280_pressure;Samples;Min_cycle;Max_cycle;Signal;HPM_P1;HPM_P2
2023/11/23 00:01:55;;;;;;;260.50;241.10;;;;;;;-1.35;76.52;101336.33;106219;1289;58968;-56
2023/11/23 00:04:41;;;;;;;175.80;163.90;;;;;;;-1.36;77.05;101324.65;106248;1290;59076;-57
2023/11/23 00:07:27;;;;;;;218.70;203.10;;;;;;;-1.36;75.17;101323.48;106104;1290;74300;-56
2023/11/23 00:10:14;;;;;;;340.40;308.70;;;;;;;-1.33;76.70;101320.02;106235;1289;67245;-56
2023/11/23 00:13:00;;;;;;;205.50;191.00;;;;;;;-1.34;77.93;101315.61;106217;1290;71161;-56
2023/11/23 00:15:46;;;;;;;370.10;333.50;;;;;;;-1.33;76.80;101306.84;106193;1288;59216;-56
2023/11/23 00:18:32;;;;;;;200.90;187.40;;;;;;;-1.31;77.42;101293.55;106203;1289;59960;-57
2023/11/23 00:21:18;;;;;;;188.50;175.70;;;;;;;-1.31;79.09;101292.04;106247;1289;72722;-54
2023/11/23 00:24:04;;;;;;;205.30;191.60;;;;;;;-1.30;78.04;101284.12;106205;1289;67244;-56
2023/11/23 00:26:51;;;;;;;230.00;210.90;;;;;;;-1.29;78.78;101276.90;106195;1289;72386;-56
2023/11/23 00:29:37;;;;;;;190.20;177.20;;;;;;;-1.29;78.01;101257.26;106210;1291;58996;-55
2023/11/23 00:32:23;;;;;;;183.60;170.60;;;;;;;-1.29;79.02;101243.25;106220;1289;59036;-57
2023/11/23 00:35:09;;;;;;;606.20;381.70;;;;;;;-1.28;78.08;101225.70;106205;1291;74301;-57
2023/11/23 00:37:55;;;;;;;;;;;;;;;-1.26;78.69;101210.21;106236;1288;66540;-57
2023/11/23 00:40:41;;;;;;;207.60;193.40;;;;;;;-1.25;79.00;101207.70;106157;1289;72463;-57
2023/11/23 00:43:27;;;;;;;206.10;191.70;;;;;;;-1.24;78.17;101195.40;106176;1290;58984;-57
2023/11/23 00:46:13;;;;;;;197.30;183.90;;;;;;;-1.23;78.90;101186.85;106156;1288;59034;-56
2023/11/23 00:48:59;;;;;;;217.80;203.20;;;;;;;-1.22;78.31;101188.59;106255;1289;73323;-57
2023/11/23 00:51:45;;;;;;;1119.60;618.10;;;;;;;-1.19;79.46;101174.13;106209;1289;67407;-54
2023/11/23 00:54:37;;;;;;;276.30;256.70;;;;;;;-1.18;78.97;101174.87;106180;1291;72072;-56
2023/11/23 00:57:23;;;;;;;242.60;226.20;;;;;;;-1.16;79.70;101168.00;106219;1291;58923;-56
2023/11/23 01:00:10;;;;;;;413.40;360.70;;;;;;;-1.15;78.42;101157.06;106228;1289;59018;-57
2023/11/23 01:02:56;;;;;;;214.80;200.50;;;;;;;-1.13;79.98;101158.81;106239;1288;73504;-56
2023/11/23 01:05:43;;;;;;;506.50;380.00;;;;;;;-1.11;78.75;101153.66;106185;1290;67810;-56
2023/11/23 01:08:29;;;;;;;214.00;199.40;;;;;;;-1.10;79.86;101151.65;106194;1290;72954;-56
2023/11/23 01:11:15;;;;;;;203.80;190.70;;;;;;;-1.08;78.72;101142.09;106207;1292;59196;-57
2023/11/23 01:14:01;;;;;;;257.20;240.40;;;;;;;-1.07;78.26;101140.97;106188;1289;58995;-56
2023/11/23 01:16:47;;;;;;;256.80;238.00;;;;;;;-1.05;79.02;101132.58;106270;1290;74050;-55
2023/11/23 01:19:33;;;;;;;422.70;381.10;;;;;;;-1.05;79.67;101122.96;106237;1289;68446;-56
2023/11/23 01:22:20;;;;;;;510.40;415.70;;;;;;;-1.04;79.73;101109.62;106151;1293;73480;-57
2023/11/23 01:25:08;;;;;;;226.50;211.40;;;;;;;-1.02;78.81;101095.96;105045;1292;61212;-58
2023/11/23 01:27:55;;;;;;;234.50;218.50;;;;;;;-1.00;78.48;101084.87;106214;1288;59648;-57
2023/11/23 01:30:41;;;;;;;219.00;204.40;;;;;;;-0.98;78.56;101083.09;106208;1291;73399;-57
2023/11/23 01:33:27;;;;;;;206.20;192.30;;;;;;;-0.96;79.22;101068.08;106158;1292;67258;-55
2023/11/23 01:36:13;;;;;;;205.30;191.60;;;;;;;-0.95;79.23;101059.48;106210;1290;72147;-57
2023/11/23 01:38:59;;;;;;;756.40;499.60;;;;;;;-0.94;79.07;101050.38;105815;1289;58898;-54
2023/11/23 01:41:45;;;;;;;231.70;216.80;;;;;;;-0.93;79.72;101042.32;104886;1289;61165;-57
2023/11/23 01:44:32;;;;;;;;;;;;;;;-0.92;79.75;101029.30;104878;1291;72450;-58
2023/11/23 01:47:18;;;;;;;535.00;420.20;;;;;;;-0.92;79.40;101018.84;104810;1292;70511;-58
2023/11/23 01:50:06;;;;;;;208.60;194.70;;;;;;;-0.92;79.67;100997.83;104853;1290;71963;-57
2023/11/23 01:52:53;;;;;;;226.70;209.00;;;;;;;-0.94;79.84;100992.71;106198;1292;59403;-56
2023/11/23 01:55:39;;;;;;;196.50;183.50;;;;;;;-0.93;80.71;100986.13;106189;1290;59109;-57
2023/11/23 01:58:25;;;;;;;912.70;590.90;;;;;;;-0.94;80.10;100976.13;106242;1290;73226;-56
2023/11/23 02:01:11;;;;;;;762.80;595.60;;;;;;;-0.94;81.13;100976.11;106207;1291;67391;-57
2023/11/23 02:03:58;;;;;;;295.90;271.70;;;;;;;-0.94;81.90;100970.02;106220;1289;72256;-56
2023/11/23 02:06:44;;;;;;;487.60;432.80;;;;;;;-0.94;82.24;100956.66;106059;1289;59049;-57
2023/11/23 02:09:30;;;;;;;207.40;193.70;;;;;;;-0.92;81.91;100947.08;106215;1292;60148;-56
2023/11/23 02:12:18;;;;;;;232.40;217.00;;;;;;;-0.90;81.05;100943.08;106210;1292;73435;-56
2023/11/23 02:15:05;;;;;;;597.10;472.10;;;;;;;-0.88;81.51;100940.13;106179;1291;67494;-56
2023/11/23 02:18:06;;;;;;;314.20;284.00;;;;;;;-0.87;81.02;100933.22;106221;1291;71359;-56
2023/11/23 02:20:52;;;;;;;268.30;249.70;;;;;;;-0.85;81.38;100920.77;106205;1292;58945;-57
2023/11/23 02:23:38;;;;;;;218.40;203.80;;;;;;;-0.86;82.11;100917.69;106149;1292;59121;-57
2023/11/23 02:26:24;;;;;;;314.50;286.40;;;;;;;-0.85;81.69;100913.34;106234;1290;73472;-56
2023/11/23 02:29:10;;;;;;;248.20;230.80;;;;;;;-0.83;82.16;100907.13;106210;1289;67323;-56
2023/11/23 02:31:57;;;;;;;374.70;323.80;;;;;;;-0.81;82.88;100896.39;106214;1291;71424;-56
2023/11/23 02:34:43;;;;;;;509.80;451.60;;;;;;;-0.80;83.57;100884.40;106167;1292;59173;-57
2023/11/23 02:37:29;;;;;;;289.90;267.20;;;;;;;-0.79;82.59;100873.08;106222;1290;59236;-56
2023/11/23 02:40:15;;;;;;;;;;;;;;;-0.80;82.72;100869.66;106226;1291;74503;-56
2023/11/23 02:43:07;;;;;;;845.10;570.50;;;;;;;-0.81;82.97;100859.98;106223;1292;68859;-57
2023/11/23 02:45:54;;;;;;;1301.30;817.30;;;;;;;-0.80;83.45;100853.41;106156;1291;71337;-57
2023/11/23 02:48:40;;;;;;;909.00;615.40;;;;;;;-0.80;84.08;100844.11;106172;1292;58931;-57
2023/11/23 02:51:26;;;;;;;409.10;365.60;;;;;;;-0.79;83.40;100841.93;106237;1290;59125;-57
2023/11/23 02:54:13;;;;;;;519.50;449.50;;;;;;;-0.77;84.34;100841.50;106227;1289;74864;-56
2023/11/23 02:56:59;;;;;;;392.70;353.90;;;;;;;-0.76;83.64;100836.13;106223;1290;67183;-56
2023/11/23 02:59:45;;;;;;;309.90;289.10;;;;;;;-0.74;85.14;100836.38;106200;1289;72583;-57
2023/11/23 03:02:31;;;;;;;265.90;248.20;;;;;;;-0.73;86.57;100835.40;106225;1289;59223;-57
2023/11/23 03:05:17;;;;;;;364.80;336.20;;;;;;;-0.73;87.00;100837.08;106225;1290;58721;-56
2023/11/23 03:08:03;;;;;;;273.00;255.90;;;;;;;-0.73;87.11;100831.49;106166;1290;73881;-56
2023/11/23 03:10:49;;;;;;;296.70;277.10;;;;;;;-0.72;87.33;100826.80;106201;1290;67777;-56
2023/11/23 03:13:35;;;;;;;451.90;419.10;;;;;;;-0.70;87.01;100817.72;106183;1292;71454;-56
2023/11/23 03:16:21;;;;;;;329.60;307.40;;;;;;;-0.69;87.16;100820.64;106206;1292;59017;-56
2023/11/23 03:19:07;;;;;;;359.80;334.10;;;;;;;-0.66;86.10;100819.37;106198;1289;60587;-56
2023/11/23 03:21:53;;;;;;;1247.40;743.40;;;;;;;-0.64;85.70;100814.33;106193;1289;74155;-56
2023/11/23 03:24:39;;;;;;;511.40;473.80;;;;;;;-0.62;86.93;100803.23;106230;1289;67564;-56
2023/11/23 03:27:25;;;;;;;798.80;715.90;;;;;;;-0.59;87.05;100791.13;106230;1289;72686;-55
2023/11/23 03:30:11;;;;;;;1005.40;633.20;;;;;;;-0.58;86.94;100777.79;102095;1291;5003366;-57
2023/11/23 03:32:57;;;;;;;;;;;;;;;-0.57;88.10;100771.55;106237;1290;59096;-55
2023/11/23 03:35:43;;;;;;;365.40;339.60;;;;;;;-0.56;86.92;100770.91;106199;1290;75009;-56
2023/11/23 03:38:29;;;;;;;458.00;425.80;;;;;;;-0.55;88.79;100760.97;106208;1289;66911;-56
2023/11/23 03:41:15;;;;;;;546.00;489.50;;;;;;;-0.54;86.81;100761.52;106247;1292;71693;-57
2023/11/23 03:44:01;;;;;;;317.60;297.50;;;;;;;-0.51;87.57;100769.20;106215;1293;59158;-56
2023/11/23 03:46:47;;;;;;;1059.80;734.70;;;;;;;-0.48;88.53;100760.65;106223;1289;60133;-56
2023/11/23 03:49:34;;;;;;;264.80;247.60;;;;;;;-0.45;88.08;100745.83;106195;1291;73142;-55
2023/11/23 03:52:20;;;;;;;1671.70;893.10;;;;;;;-0.44;87.14;100739.62;106199;1290;68390;-56
2023/11/23 03:55:06;;;;;;;388.50;360.60;;;;;;;-0.37;88.37;100725.45;106167;1290;71432;-56
2023/11/23 03:57:52;;;;;;;499.60;446.70;;;;;;;-0.29;89.41;100726.50;106233;1291;58997;-56
2023/11/23 04:00:40;;;;;;;281.20;263.30;;;;;;;-0.24;90.03;100714.13;106074;1290;58983;-57
2023/11/23 04:03:26;;;;;;;612.60;441.10;;;;;;;-0.20;89.98;100704.92;105385;1290;74551;-57
2023/11/23 04:06:12;;;;;;;;;;;;;;;-0.17;90.39;100696.04;104883;1292;67239;-57
2023/11/23 04:08:58;;;;;;;481.90;445.10;;;;;;;-0.16;90.64;100698.10;104749;1292;71223;-56
2023/11/23 04:11:44;;;;;;;;;;;;;;;-0.17;89.59;100692.31;104881;1290;61546;-58
2023/11/23 04:14:31;;;;;;;392.50;364.70;;;;;;;-0.16;89.38;100698.79;104826;1292;61174;-57
2023/11/23 04:17:18;;;;;;;329.20;307.80;;;;;;;-0.15;90.13;100687.27;104879;1293;73177;-55
2023/11/23 04:20:04;;;;;;;;;;;;;;;-0.14;90.81;100671.70;104807;1292;68124;-57
2023/11/23 04:22:50;;;;;;;759.10;673.80;;;;;;;-0.14;89.21;100661.05;106124;1293;73858;-56
2023/11/23 04:25:37;;;;;;;266.60;249.10;;;;;;;-0.12;90.31;100656.20;106095;1291;58902;-57
2023/11/23 04:28:23;;;;;;;334.50;311.50;;;;;;;-0.11;90.01;100640.79;106104;1292;59841;-54
2023/11/23 04:31:09;;;;;;;282.80;262.50;;;;;;;-0.10;89.59;100636.08;106081;1292;72950;-56
2023/11/23 04:33:55;;;;;;;429.20;394.80;;;;;;;-0.08;89.26;100627.17;106102;1291;69934;-57
2023/11/23 04:36:41;;;;;;;797.10;572.60;;;;;;;-0.05;89.47;100629.95;106110;1292;71346;-57
2023/11/23 04:39:27;;;;;;;872.80;630.20;;;;;;;-0.02;91.39;100623.77;106142;1291;59064;-59
2023/11/23 04:42:13;;;;;;;705.20;632.10;;;;;;;-0.01;91.44;100614.98;106127;1292;58904;-56
2023/11/23 04:44:59;;;;;;;1122.90;817.40;;;;;;;0.01;91.87;100609.75;106117;1291;73395;-57
2023/11/23 04:47:45;;;;;;;302.30;282.50;;;;;;;0.03;91.71;100604.54;106142;1292;67438;-57
2023/11/23 04:50:31;;;;;;;1241.30;727.40;;;;;;;0.05;91.80;100599.86;105940;1292;71358;-57
2023/11/23 04:53:17;;;;;;;1034.60;673.40;;;;;;;0.05;90.34;100587.98;105475;1293;59160;-55
2023/11/23 04:56:05;;;;;;;962.90;696.80;;;;;;;0.10;92.99;100599.83;104745;1291;62658;-58
2023/11/23 04:58:51;;;;;;;362.50;337.00;;;;;;;0.14;92.57;100590.78;106107;1290;72514;-56
2023/11/23 05:01:37;;;;;;;811.30;622.40;;;;;;;0.16;91.96;100593.38;106087;1293;67510;-56
2023/11/23 05:04:23;;;;;;;302.80;283.60;;;;;;;0.19;92.48;100592.95;105370;1295;72496;-55
2023/11/23 05:07:10;;;;;;;1441.70;723.30;;;;;;;0.21;92.50;100589.08;104678;1292;61190;-57
2023/11/23 05:09:56;;;;;;;;;;;;;;;0.24;92.81;100576.45;104753;1292;62764;-57
2023/11/23 05:12:42;;;;;;;451.90;409.60;;;;;;;0.25;92.87;100578.19;104744;1290;74301;-57
2023/11/23 05:15:29;;;;;;;520.40;469.20;;;;;;;0.30;93.42;100566.94;104764;1294;67140;-57
2023/11/23 05:18:15;;;;;;;;;;;;;;;0.33;91.45;100556.33;104661;1292;70217;-58
2023/11/23 05:21:04;;;;;;;551.60;504.80;;;;;;;0.34;91.65;100552.28;104777;1292;61164;-55
2023/11/23 05:23:50;;;;;;;1108.10;694.10;;;;;;;0.39;92.08;100552.56;104852;1295;61597;-57
2023/11/23 05:26:37;;;;;;;315.80;295.50;;;;;;;0.42;92.06;100535.52;104838;1293;73383;-58
2023/11/23 05:29:24;;;;;;;;;;;;;;;0.46;92.40;100531.38;104843;1290;67225;-58
2023/11/23 05:32:11;;;;;;;374.50;347.10;;;;;;;0.48;91.30;100521.59;104807;1294;72412;-56
2023/11/23 05:34:57;;;;;;;;;;;;;;;0.50;91.71;100521.97;104760;1292;61915;-58
2023/11/23 05:37:43;;;;;;;835.00;637.50;;;;;;;0.53;92.25;100516.93;104817;1292;61158;-56
2023/11/23 05:40:29;;;;;;;;;;;;;;;0.57;91.98;100515.15;104762;1291;73509;-57
2023/11/23 05:43:18;;;;;;;927.40;620.20;;;;;;;0.61;92.35;100515.25;104720;1289;70997;-58
2023/11/23 05:46:05;;;;;;;303.60;284.30;;;;;;;0.64;92.93;100499.71;104761;1293;72589;-57
2023/11/23 05:48:51;;;;;;;;;;;;;;;0.65;91.60;100499.22;104848;1290;61279;-58
2023/11/23 05:51:38;;;;;;;924.30;813.70;;;;;;;0.70;93.25;100499.48;104808;1289;61168;-57
2023/11/23 05:54:25;;;;;;;734.50;570.60;;;;;;;0.73;92.38;100489.55;104867;1290;73259;-58
2023/11/23 05:57:11;;;;;;;;;;;;;;;0.77;93.12;100485.58;104840;1295;67538;-58
2023/11/23 05:59:58;;;;;;;383.00;356.80;;;;;;;0.77;92.38;100474.52;104853;1294;70536;-58
2023/11/23 06:02:44;;;;;;;;;;;;;;;0.76;91.52;100473.84;104879;1292;61378;-56
2023/11/23 06:05:31;;;;;;;560.40;505.40;;;;;;;0.75;91.31;100469.75;104859;1289;63569;-58
2023/11/23 06:08:17;;;;;;;321.70;301.20;;;;;;;0.76;92.58;100466.21;106209;1289;74623;-57
2023/11/23 06:11:03;;;;;;;340.40;318.80;;;;;;;0.78;92.39;100459.63;106206;1289;68084;-57
2023/11/23 06:13:49;;;;;;;812.90;620.50;;;;;;;0.78;92.37;100450.48;106156;1289;71906;-57
2023/11/23 06:16:35;;;;;;;439.50;407.70;;;;;;;0.81;92.57;100449.19;106195;1290;58691;-56
2023/11/23 06:19:21;;;;;;;1711.70;962.70;;;;;;;0.85;92.96;100440.45;106154;1293;60117;-57
2023/11/23 06:22:08;;;;;;;793.10;609.70;;;;;;;0.89;93.24;100431.20;106196;1293;73266;-55
2023/11/23 06:24:54;;;;;;;423.60;392.30;;;;;;;0.93;92.58;100426.36;106252;1289;68450;-55
2023/11/23 06:27:39;;;;;;;334.10;313.10;;;;;;;0.97;92.73;100418.45;106177;1289;72189;-56
2023/11/23 06:30:25;;;;;;;450.60;417.90;;;;;;;0.99;91.80;100416.13;106199;1289;59130;-56
2023/11/23 06:33:11;;;;;;;377.50;352.60;;;;;;;1.03;92.58;100416.70;106212;1290;59081;-58
2023/11/23 06:35:57;;;;;;;332.50;310.90;;;;;;;1.09;92.69;100417.46;106180;1289;73539;-56
2023/11/23 06:38:43;;;;;;;314.60;295.10;;;;;;;1.14;91.95;100409.23;106160;1290;67424;-54
2023/11/23 06:41:30;;;;;;;972.90;609.40;;;;;;;1.18;91.93;100404.91;106155;1292;72610;-55
2023/11/23 06:44:17;;;;;;;;;;;;;;;1.25;91.87;100404.70;106209;1289;58995;-55
2023/11/23 06:47:04;;;;;;;444.80;403.10;;;;;;;1.32;91.61;100398.37;106147;1290;59756;-57
2023/11/23 06:49:49;;;;;;;384.30;357.80;;;;;;;1.38;91.62;100394.92;106195;1289;75080;-56
2023/11/23 06:52:35;;;;;;;395.00;369.70;;;;;;;1.42;91.19;100396.84;106252;1288;68559;-57
2023/11/23 06:55:21;;;;;;;345.20;322.70;;;;;;;1.48;91.45;100382.86;106154;1289;71392;-57
2023/11/23 06:58:07;;;;;;;555.90;504.30;;;;;;;1.54;91.30;100386.35;106189;1290;59035;-56
2023/11/23 07:00:53;;;;;;;359.70;337.10;;;;;;;1.60;92.15;100383.38;106199;1289;59041;-56
2023/11/23 07:03:41;;;;;;;1558.00;737.80;;;;;;;1.67;91.96;100380.93;106168;1289;75026;-55
2023/11/23 07:06:28;;;;;;;330.90;310.10;;;;;;;1.73;91.48;100371.02;106205;1291;68461;-56
2023/11/23 07:09:14;;;;;;;569.20;516.80;;;;;;;1.81;91.71;100371.98;106071;1288;71366;-56
2023/11/23 07:12:00;;;;;;;400.30;374.10;;;;;;;1.90;91.55;100355.29;106174;1291;59497;-57
2023/11/23 07:14:46;;;;;;;323.30;303.70;;;;;;;1.95;90.91;100358.61;106158;1290;59090;-56
2023/11/23 07:17:32;;;;;;;325.10;304.90;;;;;;;2.00;91.64;100353.23;106176;1289;73211;-56
2023/11/23 07:20:18;;;;;;;1345.90;777.80;;;;;;;2.02;91.08;100359.05;106160;1291;67383;-57
2023/11/23 07:23:04;;;;;;;;;;;;;;;2.04;90.69;100362.81;106186;1290;70572;-56
2023/11/23 07:25:52;;;;;;;;;;;;;;;2.07;91.23;100357.07;106153;1290;59320;-56
2023/11/23 07:28:38;;;;;;;235.70;221.00;;;;;;;2.10;91.25;100352.85;106138;1289;59369;-57
2023/11/23 07:31:24;;;;;;;279.40;258.90;;;;;;;2.14;90.95;100351.70;106172;1289;74506;-56
2023/11/23 07:34:10;;;;;;;394.30;369.00;;;;;;;2.18;91.07;100353.98;106175;1289;67149;-56
2023/11/23 07:36:56;;;;;;;246.50;230.40;;;;;;;2.23;90.68;100343.16;106143;1293;73484;-55
2023/11/23 07:39:42;;;;;;;369.70;346.10;;;;;;;2.28;91.12;100336.08;106150;1292;59233;-57
2023/11/23 07:42:28;;;;;;;319.80;298.90;;;;;;;2.32;90.90;100335.80;106167;1291;59175;-56
2023/11/23 07:45:16;;;;;;;375.00;351.10;;;;;;;2.37;90.50;100330.92;106091;1290;73270;-58
2023/11/23 07:48:08;;;;;;;377.90;346.70;;;;;;;2.44;90.66;100322.17;106166;1289;67516;-56
2023/11/23 07:50:54;;;;;;;445.30;416.40;;;;;;;2.53;91.16;100326.02;106156;1292;72311;-55
2023/11/23 07:53:40;;;;;;;461.10;430.60;;;;;;;2.59;90.71;100332.05;106158;1288;59204;-58
2023/11/23 07:56:26;;;;;;;504.50;453.80;;;;;;;2.66;90.35;100337.71;106140;1290;59742;-56
2023/11/23 07:59:12;;;;;;;368.30;344.00;;;;;;;2.73;90.57;100334.22;106027;1291;73129;-57
2023/11/23 08:02:01;;;;;;;505.10;454.80;;;;;;;2.78;91.45;100325.27;106169;1289;66888;-57
2023/11/23 08:04:47;;;;;;;311.50;291.70;;;;;;;2.86;91.72;100319.56;106093;1290;71427;-58
2023/11/23 08:07:33;;;;;;;334.20;309.80;;;;;;;2.91;90.71;100319.95;106106;1289;59541;-58
2023/11/23 08:10:19;;;;;;;432.50;404.70;;;;;;;2.97;91.48;100313.02;106125;1290;59329;-58
2023/11/23 08:13:05;;;;;;;286.60;267.00;;;;;;;3.02;90.97;100305.59;106141;1291;72155;-57
2023/11/23 08:15:51;;;;;;;359.10;336.00;;;;;;;3.09;91.08;100304.80;106168;1289;67536;-58
2023/11/23 08:18:37;;;;;;;279.40;260.20;;;;;;;3.14;91.37;100288.99;106126;1289;72984;-58
2023/11/23 08:21:23;;;;;;;1264.30;670.50;;;;;;;3.23;91.48;100291.45;106138;1289;58980;-57
2023/11/23 08:24:09;;;;;;;399.10;370.80;;;;;;;3.30;91.38;100292.36;106170;1288;60535;-57
2023/11/23 08:26:56;;;;;;;493.70;459.10;;;;;;;3.37;91.00;100275.21;104725;1291;74376;-56
2023/11/23 08:29:42;;;;;;;407.30;377.00;;;;;;;3.42;90.73;100271.84;104767;1291;69974;-54
2023/11/23 08:32:29;;;;;;;;;;;;;;;3.46;90.59;100263.52;104647;1289;74110;-55
2023/11/23 08:35:15;;;;;;;340.70;312.60;;;;;;;3.50;90.73;100260.83;104792;1292;61147;-54
2023/11/23 08:38:01;;;;;;;277.10;258.60;;;;;;;3.54;90.70;100259.15;104799;1289;61013;-55
2023/11/23 08:40:47;;;;;;;489.10;456.60;;;;;;;3.57;90.40;100252.19;104815;1292;73274;-57
2023/11/23 08:43:36;;;;;;;1829.90;788.20;;;;;;;3.60;90.11;100245.22;104767;1289;68307;-54
2023/11/23 08:46:23;;;;;;;530.10;492.70;;;;;;;3.64;90.43;100229.71;104724;1293;71360;-57
2023/11/23 08:49:12;;;;;;;538.20;501.50;;;;;;;3.70;90.19;100217.98;104811;1290;61058;-56
2023/11/23 08:51:59;;;;;;;505.80;470.30;;;;;;;3.75;90.07;100210.84;104820;1291;62402;-56
2023/11/23 08:54:45;;;;;;;;;;;;;;;3.80;90.29;100206.77;104771;1290;73181;-57
2023/11/23 08:57:31;;;;;;;255.30;230.70;;;;;;;3.83;89.98;100213.27;104764;1291;70031;-56
2023/11/23 09:00:27;;;;;;;303.80;283.20;;;;;;;3.85;89.90;100217.54;104753;1289;71893;-57
2023/11/23 09:03:13;;;;;;;801.30;561.50;;;;;;;3.87;89.82;100225.22;105777;1291;59262;-57
2023/11/23 09:06:00;;;;;;;975.70;647.30;;;;;;;3.89;90.43;100224.39;104752;1289;61126;-56
2023/11/23 09:08:46;;;;;;;;;;;;;;;3.93;90.50;100210.77;104723;1291;73965;-55
2023/11/23 09:11:32;;;;;;;360.00;336.80;;;;;;;3.98;90.19;100202.95;104773;1290;66277;-57
2023/11/23 09:14:18;;;;;;;;;;;;;;;4.03;89.97;100201.08;104797;1289;71255;-56
2023/11/23 09:17:05;;;;;;;686.40;512.60;;;;;;;4.08;90.28;100191.89;104796;1289;61285;-56
2023/11/23 09:19:51;;;;;;;;;;;;;;;4.14;90.49;100173.83;105313;1290;220202;-57
2023/11/23 09:22:37;;;;;;;314.30;293.50;;;;;;;4.17;90.76;100158.63;106134;1289;73325;-56
2023/11/23 09:25:24;;;;;;;262.70;244.00;;;;;;;4.24;90.66;100157.45;106179;1290;67559;-55
2023/11/23 09:28:10;;;;;;;309.70;287.40;;;;;;;4.30;90.29;100161.23;106217;1289;71307;-57
2023/11/23 09:30:56;;;;;;;424.70;396.30;;;;;;;4.33;90.34;100155.77;106148;1289;58987;-57
2023/11/23 09:33:41;;;;;;;384.20;358.30;;;;;;;4.35;90.46;100156.28;106205;1290;59058;-56
2023/11/23 09:36:32;;;;;;;385.70;359.60;;;;;;;4.38;90.38;100155.95;106211;1291;73483;-57
2023/11/23 09:39:18;;;;;;;525.90;469.10;;;;;;;4.39;90.36;100141.45;106175;1289;70731;-57
2023/11/23 09:42:07;;;;;;;329.00;296.10;;;;;;;4.42;90.41;100131.55;106164;1290;73036;-57
2023/11/23 09:44:57;;;;;;;586.90;545.20;;;;;;;4.44;90.64;100124.22;106164;1293;59037;-57
2023/11/23 09:47:43;;;;;;;577.50;533.60;;;;;;;4.45;90.65;100110.56;106043;1291;59075;-57
2023/11/23 09:50:30;;;;;;;507.90;468.50;;;;;;;4.48;91.13;100109.71;106170;1289;73773;-56
2023/11/23 09:53:16;;;;;;;1130.20;615.30;;;;;;;4.51;91.12;100102.55;106120;1291;67825;-57
2023/11/23 09:56:06;;;;;;;207.40;193.00;;;;;;;4.54;91.06;100098.63;106151;1291;73036;-58
2023/11/23 09:58:52;;;;;;;560.90;521.00;;;;;;;4.56;91.17;100099.83;106206;1289;59363;-57
2023/11/23 10:01:47;;;;;;;650.50;602.90;;;;;;;4.57;91.45;100087.35;106191;1289;58929;-57
2023/11/23 10:04:33;;;;;;;649.50;493.80;;;;;;;4.61;91.68;100080.54;106222;1289;72315;-57
2023/11/23 10:07:20;;;;;;;542.80;499.10;;;;;;;4.63;91.86;100076.77;106192;1290;67515;-57
2023/11/23 10:10:07;;;;;;;534.90;496.90;;;;;;;4.67;92.28;100077.79;106167;1288;72556;-55
2023/11/23 10:12:56;;;;;;;381.60;353.80;;;;;;;4.70;91.56;100071.10;106180;1289;59194;-57
2023/11/23 10:15:44;;;;;;;574.80;521.50;;;;;;;4.73;92.10;100070.23;106201;1289;59926;-57
2023/11/23 10:18:42;;;;;;;620.30;575.00;;;;;;;4.76;92.70;100065.46;106194;1289;73343;-57
2023/11/23 10:21:28;;;;;;;937.60;703.80;;;;;;;4.82;92.17;100056.41;106190;1289;67332;-58
2023/11/23 10:24:16;;;;;;;568.00;527.40;;;;;;;4.86;92.19;100052.98;106193;1289;70372;-56
2023/11/23 10:27:03;;;;;;;481.20;446.50;;;;;;;4.85;92.45;100043.77;106096;1289;59291;-57
2023/11/23 10:29:49;;;;;;;467.40;433.90;;;;;;;4.86;93.15;100048.55;106234;1289;59139;-57
2023/11/23 10:32:36;;;;;;;674.40;608.30;;;;;;;4.86;92.63;100036.08;106174;1292;73218;-57
2023/11/23 10:35:24;;;;;;;472.20;438.40;;;;;;;4.86;93.12;100036.92;106189;1289;67381;-57
2023/11/23 10:38:13;;;;;;;526.50;489.50;;;;;;;4.87;93.08;100032.49;105996;1289;260156;-56
2023/11/23 10:40:59;;;;;;;555.60;513.20;;;;;;;4.87;93.41;100040.52;106164;1289;59225;-57
2023/11/23 10:43:46;;;;;;;594.40;550.40;;;;;;;4.87;93.80;100048.71;106209;1290;59118;-58
2023/11/23 10:46:33;;;;;;;345.90;319.40;;;;;;;4.86;93.63;100042.57;106203;1290;74018;-58
2023/11/23 10:49:21;;;;;;;533.80;495.00;;;;;;;4.89;93.71;100044.10;106176;1290;67183;-57
2023/11/23 10:52:10;;;;;;;656.90;603.70;;;;;;;4.91;94.36;100022.58;106176;1289;70966;-57
2023/11/23 10:54:56;;;;;;;543.80;505.10;;;;;;;4.94;93.96;100020.00;106145;1290;59259;-57
2023/11/23 10:57:52;;;;;;;587.30;541.60;;;;;;;4.97;93.70;100020.17;106158;1290;59369;-58
2023/11/23 11:00:40;;;;;;;498.30;454.40;;;;;;;4.99;94.72;100018.29;106173;1289;74577;-57
2023/11/23 11:03:26;;;;;;;595.60;552.40;;;;;;;5.02;94.69;100011.10;106190;1289;66722;-58
2023/11/23 11:06:13;;;;;;;604.50;560.70;;;;;;;5.05;94.17;100001.02;106184;1291;71245;-56
2023/11/23 11:08:59;;;;;;;447.90;416.00;;;;;;;5.07;93.67;99995.55;98762;1288;10002267;-55
2023/11/23 11:11:53;;;;;;;322.10;298.50;;;;;;;5.10;94.08;99985.80;106111;1290;73253;-58
2023/11/23 11:14:50;;;;;;;690.20;601.10;;;;;;;5.12;93.89;99976.05;106193;1290;67020;-57
2023/11/23 11:17:38;;;;;;;559.10;515.40;;;;;;;5.15;94.19;99970.05;106205;1289;71170;-58
2023/11/23 11:20:25;;;;;;;915.90;672.30;;;;;;;5.20;93.80;99967.12;106106;1290;59027;-56
2023/11/23 11:23:11;;;;;;;1091.10;658.90;;;;;;;5.23;94.52;99950.00;106041;1289;59709;-58
2023/11/23 11:26:09;;;;;;;547.20;505.10;;;;;;;5.23;94.72;99944.19;106221;1290;74592;-57
2023/11/23 11:29:00;;;;;;;493.00;458.50;;;;;;;5.24;95.34;99937.52;106218;1289;68633;-57
2023/11/23 11:31:48;;;;;;;639.00;546.40;;;;;;;5.27;96.05;99926.40;106189;1289;72547;-55
2023/11/23 11:34:36;;;;;;;604.20;558.80;;;;;;;5.27;95.81;99923.67;106190;1290;59216;-55
2023/11/23 11:37:22;;;;;;;454.70;371.00;;;;;;;5.26;95.57;99913.59;106215;1291;59396;-56
2023/11/23 11:40:11;;;;;;;531.80;493.30;;;;;;;5.26;96.31;99912.23;106226;1290;73517;-57
2023/11/23 11:42:58;;;;;;;525.20;476.60;;;;;;;5.26;97.05;99908.98;106195;1289;68545;-57
2023/11/23 11:45:43;;;;;;;533.30;492.30;;;;;;;5.26;97.45;99900.95;106208;1291;71211;-56
2023/11/23 11:48:29;;;;;;;632.30;585.20;;;;;;;5.26;97.24;99892.57;106178;1290;58930;-57
2023/11/23 11:51:16;;;;;;;515.80;464.50;;;;;;;5.26;97.74;99888.81;106212;1289;60044;-57
2023/11/23 11:54:04;;;;;;;1027.40;545.30;;;;;;;5.26;97.64;99880.09;106182;1289;74516;-56
2023/11/23 11:56:51;;;;;;;698.30;631.60;;;;;;;5.23;99.69;99871.58;106234;1289;67891;-55
2023/11/23 11:59:38;;;;;;;308.20;285.40;;;;;;;5.22;99.29;99866.11;106262;1289;71295;-56
2023/11/23 12:02:24;;;;;;;601.40;557.10;;;;;;;5.20;99.70;99865.27;106238;1290;58883;-56
2023/11/23 12:05:10;;;;;;;521.30;481.00;;;;;;;5.19;99.69;99859.50;106262;1289;60009;-57
2023/11/23 12:07:56;;;;;;;641.50;592.50;;;;;;;5.17;99.12;99856.95;106251;1289;74516;-57
2023/11/23 12:10:44;;;;;;;520.60;481.80;;;;;;;5.17;98.93;99857.13;106235;1291;68474;-57
2023/11/23 12:13:32;;;;;;;635.30;589.00;;;;;;;5.19;99.39;99850.10;106246;1289;72457;-57
2023/11/23 12:16:18;;;;;;;557.30;517.20;;;;;;;5.19;99.72;99833.52;106203;1292;59001;-57
2023/11/23 12:19:20;;;;;;;594.50;546.50;;;;;;;5.19;99.16;99822.93;106227;1289;59387;-56
2023/11/23 12:22:06;;;;;;;549.60;507.80;;;;;;;5.20;98.87;99818.98;106196;1289;73324;-57
2023/11/23 12:24:53;;;;;;;664.00;614.80;;;;;;;5.22;99.01;99808.37;106179;1291;67439;-57
2023/11/23 12:27:44;;;;;;;557.50;511.00;;;;;;;5.25;99.44;99814.83;106129;1291;72600;-57